createdAt,value
2018-01-30T00:01:02.646Z,10.50
2018-01-30T00:03:30.289Z,11.43
2018-01-30T00:05:57.951Z,11.57
2018-01-30T00:08:25.616Z,8.60
2018-01-30T00:10:53.277Z,7.73
2018-01-30T00:13:20.917Z,9.00
2018-01-30T00:15:48.583Z,18.53
2018-01-30T00:18:16.245Z,12.30
2018-01-30T00:20:43.928Z,12.13
2018-01-30T00:23:11.589Z,10.63
2018-01-30T00:25:39.320Z,11.10
2018-01-30T00:28:07.103Z,15.67
2018-01-30T00:30:34.889Z,17.57
2018-01-30T00:33:02.553Z,14.73
2018-01-30T00:35:30.236Z,16.30
2018-01-30T00:37:57.888Z,12.20
2018-01-30T00:40:25.575Z,13.23
2018-01-30T00:42:53.215Z,15.83
2018-01-30T00:45:20.904Z,15.23
2018-01-30T00:47:48.526Z,11.77
2018-01-30T00:50:16.183Z,11.90
2018-01-30T00:52:43.851Z,12.63
2018-01-30T00:55:11.545Z,7.83
2018-01-30T00:57:39.208Z,17.17
2018-01-30T01:00:08.065Z,13.10
2018-01-30T01:02:35.741Z,16.73
2018-01-30T01:05:03.462Z,9.17
2018-01-30T01:07:31.143Z,10.13
2018-01-30T01:09:58.822Z,11.60
2018-01-30T01:12:26.498Z,9.50
2018-01-30T01:14:54.149Z,9.20
2018-01-30T01:17:21.794Z,13.03
2018-01-30T01:19:49.461Z,10.73
2018-01-30T01:22:17.105Z,18.03
2018-01-30T01:24:44.769Z,13.00
2018-01-30T01:27:12.436Z,11.87
2018-01-30T01:29:40.311Z,13.00
2018-01-30T01:32:07.948Z,14.90
2018-01-30T01:34:36.409Z,15.97
2018-01-30T01:37:04.260Z,14.17
2018-01-30T01:39:31.905Z,14.63
2018-01-30T01:41:59.823Z,14.83
2018-01-30T01:44:27.493Z,13.43
2018-01-30T01:46:55.898Z,15.07
2018-01-30T01:49:32.504Z,17.30
2018-01-30T01:52:00.188Z,13.63
2018-01-30T01:54:28.133Z,17.63
2018-01-30T01:56:55.798Z,14.17
2018-01-30T01:59:23.492Z,16.60
2018-01-30T02:01:51.395Z,15.97
2018-01-30T02:04:19.066Z,20.03
2018-01-30T02:06:46.729Z,19.17
2018-01-30T02:09:14.411Z,10.83
2018-01-30T02:11:41.998Z,17.80
2018-01-30T02:14:09.667Z,13.60
2018-01-30T02:16:37.379Z,16.13
2018-01-30T02:19:05.076Z,18.20
2018-01-30T02:21:32.966Z,18.50
2018-01-30T02:24:00.634Z,14.07
2018-01-30T02:26:29.052Z,15.20
2018-01-30T02:28:56.727Z,20.77
2018-01-30T02:31:24.374Z,16.03
2018-01-30T02:33:52.072Z,18.70
2018-01-30T02:36:19.730Z,12.70
2018-01-30T02:38:47.385Z,14.60
2018-01-30T02:41:15.029Z,15.03
2018-01-30T02:43:42.695Z,16.43
2018-01-30T02:46:10.388Z,22.67
2018-01-30T02:48:38.050Z,22.20
2018-01-30T02:51:05.842Z,19.20
2018-01-30T02:53:33.500Z,15.67
2018-01-30T02:56:01.340Z,21.60
2018-01-30T02:58:29.011Z,18.90
2018-01-30T03:00:57.131Z,24.90
2018-01-30T03:03:25.573Z,23.67
2018-01-30T03:05:53.705Z,15.07
2018-01-30T03:08:21.411Z,14.80
2018-01-30T03:10:49.199Z,20.47
2018-01-30T03:13:17.055Z,13.33
2018-01-30T03:15:45.457Z,15.33
2018-01-30T03:18:14.019Z,19.70
2018-01-30T03:20:41.773Z,14.73
2018-01-30T03:23:09.454Z,16.83
2018-01-30T03:25:37.124Z,16.43
2018-01-30T03:28:04.957Z,18.50
2018-01-30T03:30:32.612Z,15.90
2018-01-30T03:33:00.289Z,19.37
2018-01-30T03:35:28.263Z,14.27
2018-01-30T03:37:55.951Z,12.47
2018-01-30T03:40:23.597Z,19.33
2018-01-30T03:42:51.249Z,15.77
2018-01-30T03:45:18.926Z,16.63
2018-01-30T03:47:46.658Z,14.93
2018-01-30T03:50:15.684Z,10.63
2018-01-30T03:52:43.271Z,17.93
2018-01-30T03:55:11.712Z,15.90
2018-01-30T03:57:39.374Z,15.90
2018-01-30T04:00:07.055Z,12.67
2018-01-30T04:02:34.922Z,15.70
2018-01-30T04:05:02.686Z,9.93
2018-01-30T04:07:30.379Z,16.43
2018-01-30T04:09:58.048Z,14.67
2018-01-30T04:12:25.705Z,12.57
2018-01-30T04:14:54.142Z,14.00
2018-01-30T04:17:21.834Z,19.13
2018-01-30T04:19:49.678Z,19.00
2018-01-30T04:22:17.431Z,14.67
2018-01-30T04:24:45.477Z,15.93
2018-01-30T04:27:13.134Z,16.53
2018-01-30T04:29:40.805Z,17.63
2018-01-30T04:32:08.434Z,20.13
2018-01-30T04:34:36.103Z,16.60
2018-01-30T04:37:04.973Z,19.93
2018-01-30T04:39:32.799Z,18.43
2018-01-30T04:42:00.509Z,13.97
2018-01-30T04:44:28.387Z,18.27
2018-01-30T04:46:57.208Z,15.83
2018-01-30T04:49:24.866Z,17.33
2018-01-30T04:51:53.966Z,15.60
2018-01-30T04:54:22.072Z,16.47
2018-01-30T04:56:49.911Z,17.03
2018-01-30T04:59:17.740Z,13.83
2018-01-30T05:01:45.555Z,16.20
2018-01-30T05:04:13.402Z,18.03
2018-01-30T05:06:41.435Z,16.60
2018-01-30T05:09:09.100Z,16.90
2018-01-30T05:11:37.728Z,17.03
2018-01-30T05:14:05.396Z,13.37
2018-01-30T05:16:33.074Z,15.77
2018-01-30T05:19:01.235Z,14.63
2018-01-30T05:21:28.904Z,12.07
2018-01-30T05:23:56.546Z,14.83
2018-01-30T05:26:24.307Z,20.53
2018-01-30T05:28:51.985Z,15.20
2018-01-30T05:31:19.655Z,11.93
2018-01-30T05:33:47.296Z,21.00
2018-01-30T05:36:14.998Z,16.10
2018-01-30T05:38:42.680Z,16.50
2018-01-30T05:41:10.569Z,17.80
2018-01-30T05:43:38.245Z,16.43
2018-01-30T05:46:06.664Z,13.97
2018-01-30T05:48:34.327Z,16.33
2018-01-30T05:51:02.006Z,17.10
2018-01-30T05:53:29.898Z,18.67
2018-01-30T05:55:57.946Z,17.43
2018-01-30T05:58:25.633Z,18.20
2018-01-30T06:00:53.350Z,16.53
2018-01-30T06:03:21.015Z,18.90
2018-01-30T06:05:48.675Z,19.17
2018-01-30T06:08:16.573Z,16.90
2018-01-30T06:10:44.338Z,19.40
2018-01-30T06:13:12.018Z,18.93
2018-01-30T06:15:39.700Z,14.97
2018-01-30T06:18:07.356Z,15.20
2018-01-30T06:20:35.016Z,14.50
2018-01-30T06:23:02.670Z,20.97
2018-01-30T06:25:30.325Z,16.03
2018-01-30T06:27:57.993Z,20.63
2018-01-30T06:30:25.659Z,21.77
2018-01-30T06:32:53.360Z,19.87
2018-01-30T06:35:21.027Z,18.63
2018-01-30T06:37:49.464Z,28.30
2018-01-30T06:40:20.247Z,22.00
2018-01-30T06:42:47.943Z,24.77
2018-01-30T06:45:15.648Z,15.83
2018-01-30T06:47:43.324Z,27.00
2018-01-30T06:50:10.960Z,15.97
2018-01-30T06:52:38.642Z,15.50
2018-01-30T06:55:06.458Z,20.27
2018-01-30T06:57:34.191Z,17.07
2018-01-30T07:00:01.829Z,22.43
2018-01-30T07:02:29.520Z,18.27
2018-01-30T07:04:57.632Z,20.80
2018-01-30T07:07:25.732Z,17.17
2018-01-30T07:09:54.404Z,18.53
2018-01-30T07:12:22.069Z,18.30
2018-01-30T07:14:49.768Z,19.37
2018-01-30T07:17:18.179Z,16.93
2018-01-30T07:19:45.866Z,20.90
2018-01-30T07:22:13.535Z,17.80
2018-01-30T07:24:41.206Z,24.13
2018-01-30T07:27:08.880Z,24.70
2018-01-30T07:29:36.521Z,22.33
2018-01-30T07:32:04.169Z,22.33
2018-01-30T07:34:32.630Z,19.53
2018-01-30T07:37:00.312Z,21.23
2018-01-30T07:39:27.987Z,19.43
2018-01-30T07:41:55.589Z,20.07
2018-01-30T07:44:24.018Z,24.30
2018-01-30T07:46:51.671Z,24.17
2018-01-30T07:49:19.334Z,22.67
2018-01-30T07:51:47.283Z,24.47
2018-01-30T07:54:14.968Z,23.50
2018-01-30T07:56:42.603Z,22.93
2018-01-30T07:59:10.292Z,22.23
2018-01-30T08:01:38.993Z,19.17
2018-01-30T08:04:06.687Z,20.37
2018-01-30T08:06:34.326Z,24.33
2018-01-30T08:09:02.012Z,19.60
2018-01-30T08:11:29.713Z,20.10
2018-01-30T08:13:58.179Z,20.67
2018-01-30T08:16:25.852Z,22.17
2018-01-30T08:18:54.295Z,20.97
2018-01-30T08:21:22.063Z,24.07
2018-01-30T08:23:49.874Z,23.57
2018-01-30T08:26:18.316Z,22.73
2018-01-30T08:28:46.020Z,28.27
2018-01-30T08:31:14.669Z,23.13
2018-01-30T08:33:42.528Z,17.20
2018-01-30T08:36:10.344Z,19.17
2018-01-30T08:38:37.999Z,27.40
2018-01-30T08:41:05.656Z,24.33
2018-01-30T08:43:34.135Z,25.17
2018-01-30T08:46:01.800Z,25.20
2018-01-30T08:48:30.422Z,28.27
2018-01-30T08:50:58.061Z,24.67
2018-01-30T08:53:25.879Z,20.07
2018-01-30T08:55:53.618Z,20.10
2018-01-30T08:58:21.507Z,18.00
2018-01-30T09:00:50.017Z,22.60
2018-01-30T09:03:17.681Z,20.47
2018-01-30T09:05:45.282Z,22.87
2018-01-30T09:08:12.873Z,20.33
2018-01-30T09:10:40.775Z,15.20
2018-01-30T09:13:08.382Z,25.77
2018-01-30T09:15:40.007Z,22.57
2018-01-30T09:18:08.040Z,17.73
2018-01-30T09:20:35.932Z,17.57
2018-01-30T09:23:03.602Z,20.03
2018-01-30T09:25:31.247Z,20.77
2018-01-30T09:27:59.037Z,22.17
2018-01-30T09:30:31.053Z,17.60
2018-01-30T09:32:58.742Z,20.47
2018-01-30T09:35:26.727Z,22.03
2018-01-30T09:37:54.374Z,17.10
2018-01-30T09:40:22.075Z,19.47
2018-01-30T09:42:49.931Z,21.20
2018-01-30T09:45:18.363Z,15.97
2018-01-30T09:47:46.061Z,20.30
2018-01-30T09:50:13.757Z,18.03
2018-01-30T09:52:41.430Z,17.07
2018-01-30T09:55:09.101Z,19.40
2018-01-30T09:57:36.761Z,18.10
2018-01-30T10:00:06.330Z,22.20
2018-01-30T10:02:34.171Z,33.00
2018-01-30T10:05:02.016Z,25.73
2018-01-30T10:07:29.699Z,21.97
2018-01-30T10:09:57.363Z,13.27
2018-01-30T10:12:25.357Z,23.03
2018-01-30T10:14:53.055Z,20.03
2018-01-30T10:17:20.748Z,20.63
2018-01-30T10:19:48.574Z,17.57
2018-01-30T10:22:17.011Z,19.70
2018-01-30T10:24:44.682Z,25.23
2018-01-30T10:27:12.334Z,23.87
2018-01-30T10:29:40.005Z,25.70
2018-01-30T10:32:07.716Z,18.73
2018-01-30T10:34:35.287Z,29.80
2018-01-30T10:37:03.049Z,25.93
2018-01-30T10:39:30.693Z,23.73
2018-01-30T10:41:59.135Z,16.80
2018-01-30T10:44:26.781Z,19.37
2018-01-30T10:46:54.418Z,18.73
2018-01-30T10:49:22.109Z,24.80
2018-01-30T10:51:53.235Z,19.60
2018-01-30T10:54:21.021Z,20.60
2018-01-30T10:56:48.750Z,26.53
2018-01-30T10:59:16.516Z,20.60
2018-01-30T11:01:44.960Z,22.57
2018-01-30T11:04:13.631Z,22.93
2018-01-30T11:06:41.304Z,21.37
2018-01-30T11:09:08.968Z,24.90
2018-01-30T11:11:36.636Z,24.70
2018-01-30T11:14:04.290Z,20.30
2018-01-30T11:16:31.961Z,20.83
2018-01-30T11:18:59.635Z,20.47
2018-01-30T11:21:30.584Z,23.57
2018-01-30T11:23:59.185Z,21.73
2018-01-30T11:26:26.841Z,20.43
2018-01-30T11:28:55.281Z,20.40
2018-01-30T11:31:22.982Z,15.03
2018-01-30T11:33:51.418Z,19.53
2018-01-30T11:36:19.473Z,16.60
2018-01-30T11:38:47.212Z,20.87
2018-01-30T11:41:14.953Z,19.73
2018-01-30T11:43:42.602Z,21.67
2018-01-30T11:46:10.267Z,17.07
2018-01-30T11:48:37.985Z,20.10
2018-01-30T11:51:06.606Z,22.80
2018-01-30T11:53:34.271Z,19.20
2018-01-30T11:56:01.894Z,16.37
2018-01-30T11:58:29.894Z,21.60
2018-01-30T12:00:59.062Z,18.33
2018-01-30T12:03:27.168Z,14.80
2018-01-30T12:05:57.463Z,19.53
2018-01-30T12:08:26.482Z,19.33
2018-01-30T12:10:55.433Z,18.43
2018-01-30T12:13:25.146Z,20.20
2018-01-30T12:15:55.405Z,19.80
2018-01-30T12:18:26.106Z,18.30
2018-01-30T12:20:54.800Z,21.73
2018-01-30T12:23:25.298Z,16.73
2018-01-30T12:25:55.989Z,23.03
2018-01-30T12:28:28.388Z,21.30
2018-01-30T12:30:57.779Z,17.90
2018-01-30T12:33:29.945Z,19.67
2018-01-30T12:36:01.911Z,21.67
2018-01-30T12:38:31.384Z,19.97
2018-01-30T12:40:59.531Z,17.40
2018-01-30T12:43:29.702Z,15.07
2018-01-30T12:45:58.693Z,15.33
2018-01-30T12:48:27.335Z,13.43
2018-01-30T12:50:58.527Z,15.10
2018-01-30T12:53:29.058Z,15.70
2018-01-30T12:55:57.496Z,14.67
2018-01-30T12:58:27.383Z,15.23
2018-01-30T13:00:57.575Z,13.60
2018-01-30T13:03:25.433Z,17.13
2018-01-30T13:05:53.130Z,15.83
2018-01-30T13:08:20.847Z,19.37
2018-01-30T13:10:49.562Z,21.30
2018-01-30T13:13:17.218Z,16.30
2018-01-30T13:15:44.894Z,16.20
2018-01-30T13:18:12.548Z,17.43
2018-01-30T13:20:40.201Z,18.80
2018-01-30T13:23:08.004Z,13.30
2018-01-30T13:25:35.668Z,15.60
2018-01-30T13:28:03.338Z,15.53
2018-01-30T13:30:30.998Z,16.90
2018-01-30T13:32:58.657Z,17.90
2018-01-30T13:35:26.349Z,21.17
2018-01-30T13:37:54.804Z,17.23
2018-01-30T13:40:24.592Z,19.30
2018-01-30T13:42:52.269Z,19.57
2018-01-30T13:45:19.947Z,17.17
2018-01-30T13:47:47.749Z,21.97
2018-01-30T13:50:15.447Z,18.37
2018-01-30T13:52:43.110Z,27.03
2018-01-30T13:55:10.816Z,22.87
2018-01-30T13:57:38.507Z,19.00
2018-01-30T14:00:06.208Z,20.70
2018-01-30T14:02:33.974Z,26.10
2018-01-30T14:05:01.889Z,20.87
2018-01-30T14:07:30.285Z,19.53
2018-01-30T14:09:59.084Z,20.77
2018-01-30T14:12:26.880Z,18.47
2018-01-30T14:14:54.614Z,20.23
2018-01-30T14:17:22.424Z,19.13
2018-01-30T14:19:50.113Z,19.80
2018-01-30T14:22:17.920Z,21.17
2018-01-30T14:24:45.605Z,18.83
2018-01-30T14:27:13.267Z,18.73
2018-01-30T14:29:40.934Z,20.30
2018-01-30T14:32:08.642Z,17.90
2018-01-30T14:34:36.295Z,17.80
2018-01-30T14:37:04.653Z,18.73
2018-01-30T14:39:32.396Z,16.67
2018-01-30T14:42:00.128Z,15.23
2018-01-30T14:44:27.829Z,15.97
2018-01-30T14:46:55.490Z,17.87
2018-01-30T14:49:23.173Z,16.10
2018-01-30T14:51:52.877Z,19.60
2018-01-30T14:54:20.541Z,20.23
2018-01-30T14:56:48.225Z,15.67
2018-01-30T14:59:15.888Z,18.10
2018-01-30T15:01:43.715Z,19.03
2018-01-30T15:04:11.381Z,18.50
2018-01-30T15:06:39.130Z,14.97
2018-01-30T15:09:06.845Z,18.93
2018-01-30T15:11:34.519Z,16.27
2018-01-30T15:14:02.308Z,18.83
2018-01-30T15:16:30.358Z,14.97
2018-01-30T15:18:58.172Z,20.50
2018-01-30T15:21:33.407Z,21.60
2018-01-30T15:24:01.170Z,20.53
2018-01-30T15:26:28.928Z,21.33
2018-01-30T15:28:56.786Z,17.87
2018-01-30T15:31:24.485Z,18.37
2018-01-30T15:33:52.171Z,16.80
2018-01-30T15:36:20.133Z,22.37
2018-01-30T15:38:49.017Z,21.77
2018-01-30T15:41:20.261Z,20.17
2018-01-30T15:43:53.709Z,19.37
2018-01-30T15:46:22.162Z,21.33
2018-01-30T15:48:49.902Z,17.73
2018-01-30T15:51:17.661Z,26.40
2018-01-30T15:53:45.593Z,19.37
2018-01-30T15:56:13.548Z,21.47
2018-01-30T15:58:42.218Z,18.60
2018-01-30T16:01:11.111Z,21.67
2018-01-30T16:03:38.966Z,20.87
2018-01-30T16:06:06.865Z,19.50
2018-01-30T16:08:35.891Z,19.07
2018-01-30T16:11:04.690Z,19.43
2018-01-30T16:13:32.576Z,18.03
2018-01-30T16:16:00.250Z,19.70
2018-01-30T16:18:27.965Z,17.80
2018-01-30T16:20:56.323Z,19.00
2018-01-30T16:23:24.757Z,20.37
2018-01-30T16:25:52.412Z,19.07
2018-01-30T16:28:20.864Z,16.27
2018-01-30T16:30:51.603Z,19.63
2018-01-30T16:33:19.307Z,15.53
2018-01-30T16:35:46.974Z,16.90
2018-01-30T16:38:14.659Z,17.00
2018-01-30T16:40:42.304Z,13.60
2018-01-30T16:43:10.008Z,19.47
2018-01-30T16:45:38.451Z,18.17
2018-01-30T16:48:06.154Z,18.87
2018-01-30T16:50:33.826Z,19.93
2018-01-30T16:53:02.267Z,18.07
2018-01-30T16:55:29.931Z,17.93
2018-01-30T16:57:57.601Z,13.33
2018-01-30T17:00:28.835Z,17.07
2018-01-30T17:02:56.504Z,17.00
2018-01-30T17:05:24.181Z,21.10
2018-01-30T17:07:51.842Z,16.73
2018-01-30T17:10:19.509Z,17.27
2018-01-30T17:12:47.171Z,20.23
2018-01-30T17:15:14.837Z,17.50
2018-01-30T17:17:42.497Z,23.80
2018-01-30T17:20:10.197Z,22.93
2018-01-30T17:22:37.966Z,19.70
2018-01-30T17:25:05.607Z,22.17
2018-01-30T17:27:34.061Z,20.10
2018-01-30T17:30:06.408Z,30.77
2018-01-30T17:32:34.082Z,27.53
2018-01-30T17:35:01.768Z,28.67
2018-01-30T17:37:29.420Z,29.77
2018-01-30T17:39:57.099Z,26.53
2018-01-30T17:42:24.750Z,29.70
2018-01-30T17:44:52.427Z,25.47
2018-01-30T17:47:20.115Z,31.60
2018-01-30T17:49:48.536Z,31.80
2018-01-30T17:54:48.973Z,30.40
2018-01-30T17:57:16.627Z,31.50
2018-01-30T17:59:44.311Z,29.57
2018-01-30T18:02:11.971Z,35.20
2018-01-30T18:04:39.648Z,33.47
2018-01-30T18:07:07.332Z,31.77
2018-01-30T18:09:34.968Z,30.33
2018-01-30T18:12:03.765Z,32.53
2018-01-30T18:14:31.375Z,34.57
2018-01-30T18:16:59.815Z,36.33
2018-01-30T18:19:27.551Z,34.90
2018-01-30T18:21:55.241Z,36.77
2018-01-30T18:24:22.923Z,40.17
2018-01-30T18:26:50.592Z,37.83
2018-01-30T18:29:18.267Z,36.50
2018-01-30T18:31:46.686Z,32.50
2018-01-30T18:34:14.572Z,39.07
2018-01-30T18:36:42.270Z,41.97
2018-01-30T18:39:09.966Z,45.27
2018-01-30T18:41:38.562Z,35.57
2018-01-30T18:44:07.000Z,39.83
2018-01-30T18:46:35.447Z,34.30
2018-01-30T18:49:03.126Z,41.60
2018-01-30T18:51:30.813Z,40.87
2018-01-30T18:53:58.499Z,40.87
2018-01-30T18:56:26.473Z,37.20
2018-01-30T18:58:54.148Z,33.20
2018-01-30T19:01:21.792Z,37.67
2018-01-30T19:03:49.436Z,35.43
2018-01-30T19:06:17.875Z,40.70
2018-01-30T19:08:45.535Z,34.03
2018-01-30T19:11:16.364Z,34.10
2018-01-30T19:13:44.000Z,35.83
2018-01-30T19:16:11.645Z,32.37
2018-01-30T19:18:40.073Z,35.90
2018-01-30T19:21:07.723Z,35.93
2018-01-30T19:23:35.409Z,38.43
2018-01-30T19:26:03.091Z,39.43
2018-01-30T19:28:30.748Z,34.33
2018-01-30T19:30:58.437Z,38.17
2018-01-30T19:33:26.091Z,38.53
2018-01-30T19:35:53.766Z,51.63
2018-01-30T19:38:22.224Z,41.07
2018-01-30T19:40:51.838Z,41.37
2018-01-30T19:43:19.498Z,36.27
2018-01-30T19:45:47.173Z,40.23
2018-01-30T19:48:14.825Z,41.50
2018-01-30T19:50:42.492Z,40.90
2018-01-30T19:53:10.179Z,37.13
2018-01-30T19:55:37.840Z,39.33
2018-01-30T19:58:05.507Z,46.03
2018-01-30T20:00:33.957Z,42.40
2018-01-30T20:03:01.637Z,38.90
2018-01-30T20:05:29.314Z,54.77
2018-01-30T20:07:56.971Z,55.37
2018-01-30T20:10:27.579Z,48.65
2018-01-30T20:12:55.252Z,42.00
2018-01-30T20:15:22.940Z,44.47
2018-01-30T20:17:51.371Z,50.63
2018-01-30T20:20:19.052Z,45.97
2018-01-30T20:22:46.768Z,44.07
2018-01-30T20:25:14.465Z,46.20
2018-01-30T20:27:42.145Z,45.80
2018-01-30T20:30:09.865Z,49.20
2018-01-30T20:32:37.515Z,58.20
2018-01-30T20:35:05.189Z,49.50
2018-01-30T20:37:32.882Z,51.80
2018-01-30T20:40:01.513Z,47.73
2018-01-30T20:42:29.947Z,53.97
2018-01-30T20:44:57.756Z,54.43
2018-01-30T20:47:25.435Z,50.13
2018-01-30T20:49:53.081Z,49.47
2018-01-30T20:52:20.775Z,52.23
2018-01-30T20:54:48.536Z,55.57
2018-01-30T20:57:16.188Z,52.27
2018-01-30T20:59:43.882Z,49.80
2018-01-30T21:02:11.564Z,52.90
2018-01-30T21:04:39.237Z,47.73
2018-01-30T21:07:06.904Z,43.30
2018-01-30T21:09:34.586Z,58.17
2018-01-30T21:12:02.979Z,57.43
2018-01-30T21:14:30.617Z,59.83
2018-01-30T21:16:58.276Z,62.77
2018-01-30T21:19:25.935Z,59.70
2018-01-30T21:21:53.579Z,47.87
2018-01-30T21:24:21.265Z,49.60
2018-01-30T21:26:48.941Z,42.47
2018-01-30T21:29:16.613Z,42.67
2018-01-30T21:31:45.250Z,53.13
2018-01-30T21:34:12.913Z,50.63
2018-01-30T21:36:40.603Z,50.83
2018-01-30T21:39:08.285Z,51.77
2018-01-30T21:41:35.943Z,45.87
2018-01-30T21:44:04.384Z,57.97
2018-01-30T21:46:32.046Z,50.90
2018-01-30T21:48:59.707Z,55.27
2018-01-30T21:51:27.368Z,46.77
2018-01-30T21:53:55.049Z,55.30
2018-01-30T21:56:22.691Z,50.30
2018-01-30T21:58:50.365Z,51.03
2018-01-30T22:01:30.644Z,49.43
2018-01-30T22:03:58.356Z,47.47
2018-01-30T22:06:26.040Z,61.67
2018-01-30T22:08:53.714Z,59.63
2018-01-30T22:11:21.368Z,59.43
2018-01-30T22:13:49.039Z,52.37
2018-01-30T22:16:16.739Z,49.60
2018-01-30T22:18:44.422Z,51.17
2018-01-30T22:21:12.854Z,59.80
2018-01-30T22:23:40.514Z,49.70
2018-01-30T22:26:08.188Z,49.90
2018-01-30T22:28:35.844Z,43.93
2018-01-30T22:31:03.623Z,48.73
2018-01-30T22:33:31.284Z,46.27
2018-01-30T22:35:59.052Z,48.73
2018-01-30T22:38:26.721Z,45.90
2018-01-30T22:40:54.422Z,53.13
2018-01-30T22:43:22.104Z,48.27
2018-01-30T22:45:49.798Z,46.63
